sensor_id;sensor_type;location;lat;lon;timestamp;temperature;humidity
53653;DHT22;39553;52.954;5.932;2023-04-24T00:01:20;10.60;99.90
53653;DHT22;39553;52.954;5.932;2023-04-24T00:03:45;10.50;99.90
53653;DHT22;39553;52.954;5.932;2023-04-24T00:06:11;10.50;99.90
53653;DHT22;39553;52.954;5.932;2023-04-24T00:08:37;10.50;99.90
53653;DHT22;39553;52.954;5.932;2023-04-24T00:11:03;10.50;99.90
53653;DHT22;39553;52.954;5.932;2023-04-24T00:13:28;10.50;99.90
53653;DHT22;39553;52.954;5.932;2023-04-24T00:15:55;10.50;99.90
53653;DHT22;39553;52.954;5.932;2023-04-24T00:18:22;10.50;99.90
53653;DHT22;39553;52.954;5.932;2023-04-24T00:20:47;10.50;99.90
53653;DHT22;39553;52.954;5.932;2023-04-24T00:23:13;10.40;99.90
53653;DHT22;39553;52.954;5.932;2023-04-24T00:25:39;10.40;99.90
53653;DHT22;39553;52.954;5.932;2023-04-24T00:28:05;10.40;99.90
53653;DHT22;39553;52.954;5.932;2023-04-24T00:30:31;10.30;99.90
53653;DHT22;39553;52.954;5.932;2023-04-24T00:32:57;10.30;99.90
53653;DHT22;39553;52.954;5.932;2023-04-24T00:35:23;10.30;99.90
53653;DHT22;39553;52.954;5.932;2023-04-24T00:37:49;10.30;99.90
53653;DHT22;39553;52.954;5.932;2023-04-24T00:40:15;10.40;99.90
53653;DHT22;39553;52.954;5.932;2023-04-24T00:42:41;10.30;99.90
53653;DHT22;39553;52.954;5.932;2023-04-24T00:45:08;10.20;99.90
53653;DHT22;39553;52.954;5.932;2023-04-24T00:47:34;10.20;99.90
53653;DHT22;39553;52.954;5.932;2023-04-24T00:50:03;10.20;99.90
53653;DHT22;39553;52.954;5.932;2023-04-24T00:52:29;10.20;99.90
53653;DHT22;39553;52.954;5.932;2023-04-24T00:54:57;10.20;99.90
53653;DHT22;39553;52.954;5.932;2023-04-24T00:57:23;10.20;99.90
53653;DHT22;39553;52.954;5.932;2023-04-24T00:59:49;10.20;99.90
53653;DHT22;39553;52.954;5.932;2023-04-24T01:02:15;10.20;99.90
53653;DHT22;39553;52.954;5.932;2023-04-24T01:04:42;10.10;99.90
53653;DHT22;39553;52.954;5.932;2023-04-24T01:07:09;10.10;99.90
53653;DHT22;39553;52.954;5.932;2023-04-24T01:09:40;10.30;99.90
53653;DHT22;39553;52.954;5.932;2023-04-24T01:12:09;10.00;99.90
53653;DHT22;39553;52.954;5.932;2023-04-24T01:14:35;10.00;99.90
53653;DHT22;39553;52.954;5.932;2023-04-24T01:17:01;10.00;99.90
53653;DHT22;39553;52.954;5.932;2023-04-24T01:19:27;10.00;99.90
53653;DHT22;39553;52.954;5.932;2023-04-24T01:21:54;10.00;99.90
53653;DHT22;39553;52.954;5.932;2023-04-24T01:24:23;10.00;99.90
53653;DHT22;39553;52.954;5.932;2023-04-24T01:26:49;10.00;99.90
53653;DHT22;39553;52.954;5.932;2023-04-24T01:29:15;10.00;99.90
53653;DHT22;39553;52.954;5.932;2023-04-24T01:31:41;10.00;99.90
53653;DHT22;39553;52.954;5.932;2023-04-24T01:34:07;10.00;99.90
53653;DHT22;39553;52.954;5.932;2023-04-24T01:36:35;10.00;99.90
53653;DHT22;39553;52.954;5.932;2023-04-24T01:39:01;10.00;99.90
53653;DHT22;39553;52.954;5.932;2023-04-24T01:41:28;10.00;99.90
53653;DHT22;39553;52.954;5.932;2023-04-24T01:43:55;10.00;99.90
53653;DHT22;39553;52.954;5.932;2023-04-24T01:46:20;10.00;99.90
53653;DHT22;39553;52.954;5.932;2023-04-24T01:48:46;10.00;99.90
53653;DHT22;39553;52.954;5.932;2023-04-24T01:51:12;10.10;99.90
53653;DHT22;39553;52.954;5.932;2023-04-24T01:53:38;10.00;99.90
53653;DHT22;39553;52.954;5.932;2023-04-24T01:56:04;10.00;99.90
53653;DHT22;39553;52.954;5.932;2023-04-24T01:58:30;10.00;99.90
53653;DHT22;39553;52.954;5.932;2023-04-24T02:00:57;10.00;99.90
53653;DHT22;39553;52.954;5.932;2023-04-24T02:03:26;10.00;99.90
53653;DHT22;39553;52.954;5.932;2023-04-24T02:05:52;10.00;99.90
53653;DHT22;39553;52.954;5.932;2023-04-24T02:08:17;10.10;99.90
53653;DHT22;39553;52.954;5.932;2023-04-24T02:10:43;10.00;99.90
53653;DHT22;39553;52.954;5.932;2023-04-24T02:13:09;10.00;99.90
53653;DHT22;39553;52.954;5.932;2023-04-24T02:15:35;10.00;99.90
53653;DHT22;39553;52.954;5.932;2023-04-24T02:18:01;10.00;99.90
53653;DHT22;39553;52.954;5.932;2023-04-24T02:20:27;10.00;99.90
53653;DHT22;39553;52.954;5.932;2023-04-24T02:22:53;10.00;99.90
53653;DHT22;39553;52.954;5.932;2023-04-24T02:25:19;10.00;99.90
53653;DHT22;39553;52.954;5.932;2023-04-24T02:27:45;10.00;99.90
53653;DHT22;39553;52.954;5.932;2023-04-24T02:30:11;10.10;99.90
53653;DHT22;39553;52.954;5.932;2023-04-24T02:32:36;10.00;99.90
53653;DHT22;39553;52.954;5.932;2023-04-24T02:35:02;10.00;99.90
53653;DHT22;39553;52.954;5.932;2023-04-24T02:37:28;10.10;99.90
53653;DHT22;39553;52.954;5.932;2023-04-24T02:39:54;10.00;99.90
53653;DHT22;39553;52.954;5.932;2023-04-24T02:42:20;10.10;99.90
53653;DHT22;39553;52.954;5.932;2023-04-24T02:44:46;10.00;99.90
53653;DHT22;39553;52.954;5.932;2023-04-24T02:47:12;10.10;99.90
53653;DHT22;39553;52.954;5.932;2023-04-24T02:49:37;10.00;99.90
53653;DHT22;39553;52.954;5.932;2023-04-24T02:52:03;10.10;99.90
53653;DHT22;39553;52.954;5.932;2023-04-24T02:54:29;10.10;99.90
53653;DHT22;39553;52.954;5.932;2023-04-24T02:56:55;10.10;99.90
53653;DHT22;39553;52.954;5.932;2023-04-24T02:59:22;10.00;99.90
53653;DHT22;39553;52.954;5.932;2023-04-24T03:01:48;10.10;99.90
53653;DHT22;39553;52.954;5.932;2023-04-24T03:04:13;10.10;99.90
53653;DHT22;39553;52.954;5.932;2023-04-24T03:06:39;10.10;99.90
53653;DHT22;39553;52.954;5.932;2023-04-24T03:09:05;10.10;99.90
53653;DHT22;39553;52.954;5.932;2023-04-24T03:11:31;10.20;99.90
53653;DHT22;39553;52.954;5.932;2023-04-24T03:13:57;10.10;99.90
53653;DHT22;39553;52.954;5.932;2023-04-24T03:16:22;10.10;99.90
53653;DHT22;39553;52.954;5.932;2023-04-24T03:18:48;10.10;99.90
53653;DHT22;39553;52.954;5.932;2023-04-24T03:21:14;10.10;99.90
53653;DHT22;39553;52.954;5.932;2023-04-24T03:23:40;10.10;99.90
53653;DHT22;39553;52.954;5.932;2023-04-24T03:26:06;10.10;99.90
53653;DHT22;39553;52.954;5.932;2023-04-24T03:28:31;10.10;99.90
53653;DHT22;39553;52.954;5.932;2023-04-24T03:30:57;10.10;99.90
53653;DHT22;39553;52.954;5.932;2023-04-24T03:33:23;10.10;99.90
53653;DHT22;39553;52.954;5.932;2023-04-24T03:35:49;10.10;99.90
53653;DHT22;39553;52.954;5.932;2023-04-24T03:38:14;10.10;99.90
53653;DHT22;39553;52.954;5.932;2023-04-24T03:40:40;10.00;99.90
53653;DHT22;39553;52.954;5.932;2023-04-24T03:43:06;10.00;99.90
53653;DHT22;39553;52.954;5.932;2023-04-24T03:45:32;10.00;99.90
53653;DHT22;39553;52.954;5.932;2023-04-24T03:47:58;10.00;99.90
53653;DHT22;39553;52.954;5.932;2023-04-24T03:50:23;10.00;99.90
53653;DHT22;39553;52.954;5.932;2023-04-24T03:52:49;10.00;99.90
53653;DHT22;39553;52.954;5.932;2023-04-24T03:55:15;10.00;99.90
53653;DHT22;39553;52.954;5.932;2023-04-24T03:57:41;9.90;99.90
53653;DHT22;39553;52.954;5.932;2023-04-24T04:00:07;10.00;99.90
53653;DHT22;39553;52.954;5.932;2023-04-24T04:02:34;9.90;99.90
53653;DHT22;39553;52.954;5.932;2023-04-24T04:05:00;9.90;99.90
53653;DHT22;39553;52.954;5.932;2023-04-24T04:07:25;9.80;99.90
53653;DHT22;39553;52.954;5.932;2023-04-24T04:09:51;9.90;99.90
53653;DHT22;39553;52.954;5.932;2023-04-24T04:12:17;9.80;99.90
53653;DHT22;39553;52.954;5.932;2023-04-24T04:14:43;9.80;99.90
53653;DHT22;39553;52.954;5.932;2023-04-24T04:17:09;9.80;99.90
53653;DHT22;39553;52.954;5.932;2023-04-24T04:19:34;9.90;99.90
53653;DHT22;39553;52.954;5.932;2023-04-24T04:22:00;9.80;99.90
53653;DHT22;39553;52.954;5.932;2023-04-24T04:24:26;9.90;99.90
53653;DHT22;39553;52.954;5.932;2023-04-24T04:26:52;9.80;99.90
53653;DHT22;39553;52.954;5.932;2023-04-24T04:29:18;9.70;99.90
53653;DHT22;39553;52.954;5.932;2023-04-24T04:31:44;9.70;99.90
53653;DHT22;39553;52.954;5.932;2023-04-24T04:34:10;9.70;99.90
53653;DHT22;39553;52.954;5.932;2023-04-24T04:36:37;9.70;99.90
53653;DHT22;39553;52.954;5.932;2023-04-24T04:39:06;9.70;99.90
53653;DHT22;39553;52.954;5.932;2023-04-24T04:41:32;9.60;99.90
53653;DHT22;39553;52.954;5.932;2023-04-24T04:44:00;9.70;99.90
53653;DHT22;39553;52.954;5.932;2023-04-24T04:46:27;9.60;99.90
53653;DHT22;39553;52.954;5.932;2023-04-24T04:48:53;9.60;99.90
53653;DHT22;39553;52.954;5.932;2023-04-24T04:51:19;9.60;99.90
53653;DHT22;39553;52.954;5.932;2023-04-24T04:53:45;9.60;99.90
53653;DHT22;39553;52.954;5.932;2023-04-24T04:56:11;9.40;99.90
53653;DHT22;39553;52.954;5.932;2023-04-24T04:58:37;9.50;99.90
53653;DHT22;39553;52.954;5.932;2023-04-24T05:01:03;9.60;99.90
53653;DHT22;39553;52.954;5.932;2023-04-24T05:03:28;9.50;99.90
53653;DHT22;39553;52.954;5.932;2023-04-24T05:05:54;9.50;99.90
53653;DHT22;39553;52.954;5.932;2023-04-24T05:08:20;9.40;99.90
53653;DHT22;39553;52.954;5.932;2023-04-24T05:10:46;9.50;99.90
53653;DHT22;39553;52.954;5.932;2023-04-24T05:13:11;9.50;99.90
53653;DHT22;39553;52.954;5.932;2023-04-24T05:15:37;9.40;99.90
53653;DHT22;39553;52.954;5.932;2023-04-24T05:18:03;9.40;99.90
53653;DHT22;39553;52.954;5.932;2023-04-24T05:20:29;9.40;99.90
53653;DHT22;39553;52.954;5.932;2023-04-24T05:22:55;9.50;99.90
53653;DHT22;39553;52.954;5.932;2023-04-24T05:25:24;9.40;99.90
53653;DHT22;39553;52.954;5.932;2023-04-24T05:27:59;9.50;99.90
53653;DHT22;39553;52.954;5.932;2023-04-24T05:30:25;9.60;99.90
53653;DHT22;39553;52.954;5.932;2023-04-24T05:32:51;9.40;99.90
53653;DHT22;39553;52.954;5.932;2023-04-24T05:35:17;9.50;99.90
53653;DHT22;39553;52.954;5.932;2023-04-24T05:37:44;9.50;99.90
53653;DHT22;39553;52.954;5.932;2023-04-24T05:40:10;9.50;99.90
53653;DHT22;39553;52.954;5.932;2023-04-24T05:42:39;9.60;99.90
53653;DHT22;39553;52.954;5.932;2023-04-24T05:45:08;9.50;99.90
53653;DHT22;39553;52.954;5.932;2023-04-24T05:47:37;9.50;99.90
53653;DHT22;39553;52.954;5.932;2023-04-24T05:50:03;9.50;99.90
53653;DHT22;39553;52.954;5.932;2023-04-24T05:52:28;9.50;99.90
53653;DHT22;39553;52.954;5.932;2023-04-24T05:54:54;9.50;99.90
53653;DHT22;39553;52.954;5.932;2023-04-24T05:57:21;9.50;99.90
53653;DHT22;39553;52.954;5.932;2023-04-24T05:59:46;9.60;99.90
53653;DHT22;39553;52.954;5.932;2023-04-24T06:02:12;10.10;99.90
53653;DHT22;39553;52.954;5.932;2023-04-24T06:04:38;9.50;99.90
53653;DHT22;39553;52.954;5.932;2023-04-24T06:07:03;9.60;99.90
53653;DHT22;39553;52.954;5.932;2023-04-24T06:09:29;9.60;99.90
53653;DHT22;39553;52.954;5.932;2023-04-24T06:11:55;9.60;99.90
53653;DHT22;39553;52.954;5.932;2023-04-24T06:14:22;9.60;99.90
53653;DHT22;39553;52.954;5.932;2023-04-24T06:16:47;9.60;99.90
53653;DHT22;39553;52.954;5.932;2023-04-24T06:19:13;9.60;99.90
53653;DHT22;39553;52.954;5.932;2023-04-24T06:21:39;9.60;99.90
53653;DHT22;39553;52.954;5.932;2023-04-24T06:24:05;9.70;99.90
53653;DHT22;39553;52.954;5.932;2023-04-24T06:26:30;9.70;99.90
53653;DHT22;39553;52.954;5.932;2023-04-24T06:28:57;9.70;99.90
53653;DHT22;39553;52.954;5.932;2023-04-24T06:31:24;9.70;99.90
53653;DHT22;39553;52.954;5.932;2023-04-24T06:33:50;9.70;99.90
53653;DHT22;39553;52.954;5.932;2023-04-24T06:36:16;9.70;99.90
53653;DHT22;39553;52.954;5.932;2023-04-24T06:38:42;9.60;99.90
53653;DHT22;39553;52.954;5.932;2023-04-24T06:41:09;9.70;99.90
53653;DHT22;39553;52.954;5.932;2023-04-24T06:43:35;9.70;99.90
53653;DHT22;39553;52.954;5.932;2023-04-24T06:46:00;9.70;99.90
53653;DHT22;39553;52.954;5.932;2023-04-24T06:48:29;9.60;99.90
53653;DHT22;39553;52.954;5.932;2023-04-24T06:50:55;9.60;99.90
53653;DHT22;39553;52.954;5.932;2023-04-24T06:53:20;9.50;99.90
53653;DHT22;39553;52.954;5.932;2023-04-24T06:55:46;9.50;99.90
53653;DHT22;39553;52.954;5.932;2023-04-24T06:58:12;9.50;99.90
53653;DHT22;39553;52.954;5.932;2023-04-24T07:00:38;9.40;99.90
53653;DHT22;39553;52.954;5.932;2023-04-24T07:03:04;9.40;99.90
53653;DHT22;39553;52.954;5.932;2023-04-24T07:05:32;9.30;99.90
53653;DHT22;39553;52.954;5.932;2023-04-24T07:08:01;9.20;99.90
53653;DHT22;39553;52.954;5.932;2023-04-24T07:10:27;9.20;99.90
53653;DHT22;39553;52.954;5.932;2023-04-24T07:12:55;9.10;99.90
53653;DHT22;39553;52.954;5.932;2023-04-24T07:15:22;9.10;99.90
53653;DHT22;39553;52.954;5.932;2023-04-24T07:17:48;9.10;99.90
53653;DHT22;39553;52.954;5.932;2023-04-24T07:20:15;9.10;99.90
53653;DHT22;39553;52.954;5.932;2023-04-24T07:22:41;9.10;99.90
53653;DHT22;39553;52.954;5.932;2023-04-24T07:25:07;9.00;99.90
53653;DHT22;39553;52.954;5.932;2023-04-24T07:27:34;9.00;99.90
53653;DHT22;39553;52.954;5.932;2023-04-24T07:30:02;9.00;99.90
53653;DHT22;39553;52.954;5.932;2023-04-24T07:32:27;9.00;99.90
53653;DHT22;39553;52.954;5.932;2023-04-24T07:34:53;9.00;99.90
53653;DHT22;39553;52.954;5.932;2023-04-24T07:37:19;9.00;99.90
53653;DHT22;39553;52.954;5.932;2023-04-24T07:39:45;9.10;99.90
53653;DHT22;39553;52.954;5.932;2023-04-24T07:42:11;9.00;99.90
53653;DHT22;39553;52.954;5.932;2023-04-24T07:44:37;9.00;99.90
53653;DHT22;39553;52.954;5.932;2023-04-24T07:47:03;9.00;99.90
53653;DHT22;39553;52.954;5.932;2023-04-24T07:49:28;9.00;99.90
53653;DHT22;39553;52.954;5.932;2023-04-24T07:51:54;9.00;99.90
53653;DHT22;39553;52.954;5.932;2023-04-24T07:54:20;8.90;99.90
53653;DHT22;39553;52.954;5.932;2023-04-24T07:56:46;8.80;99.90
53653;DHT22;39553;52.954;5.932;2023-04-24T07:59:12;8.80;99.90
53653;DHT22;39553;52.954;5.932;2023-04-24T08:01:37;8.80;99.90
53653;DHT22;39553;52.954;5.932;2023-04-24T08:04:04;8.90;99.90
53653;DHT22;39553;52.954;5.932;2023-04-24T08:06:29;8.80;99.90
53653;DHT22;39553;52.954;5.932;2023-04-24T08:08:59;8.90;99.90
53653;DHT22;39553;52.954;5.932;2023-04-24T08:11:25;8.90;99.90
53653;DHT22;39553;52.954;5.932;2023-04-24T08:13:51;8.90;99.90
53653;DHT22;39553;52.954;5.932;2023-04-24T08:16:17;9.00;99.90
53653;DHT22;39553;52.954;5.932;2023-04-24T08:18:43;9.10;99.90
53653;DHT22;39553;52.954;5.932;2023-04-24T08:21:09;9.10;99.90
53653;DHT22;39553;52.954;5.932;2023-04-24T08:23:35;9.20;99.90
53653;DHT22;39553;52.954;5.932;2023-04-24T08:26:00;9.30;99.90
53653;DHT22;39553;52.954;5.932;2023-04-24T08:28:26;9.30;99.90
53653;DHT22;39553;52.954;5.932;2023-04-24T08:30:52;9.20;99.90
53653;DHT22;39553;52.954;5.932;2023-04-24T08:33:21;9.20;99.90
53653;DHT22;39553;52.954;5.932;2023-04-24T08:35:47;9.20;99.90
53653;DHT22;39553;52.954;5.932;2023-04-24T08:38:13;9.20;99.90
53653;DHT22;39553;52.954;5.932;2023-04-24T08:40:39;9.20;99.90
53653;DHT22;39553;52.954;5.932;2023-04-24T08:43:05;9.20;99.90
53653;DHT22;39553;52.954;5.932;2023-04-24T08:45:32;9.20;99.90
53653;DHT22;39553;52.954;5.932;2023-04-24T08:47:59;9.20;99.90
53653;DHT22;39553;52.954;5.932;2023-04-24T08:50:25;9.30;99.90
53653;DHT22;39553;52.954;5.932;2023-04-24T08:52:52;9.30;99.90
53653;DHT22;39553;52.954;5.932;2023-04-24T08:55:24;9.40;99.90
53653;DHT22;39553;52.954;5.932;2023-04-24T08:57:52;9.50;99.90
53653;DHT22;39553;52.954;5.932;2023-04-24T09:00:20;9.60;99.90
53653;DHT22;39553;52.954;5.932;2023-04-24T09:02:48;9.70;99.90
53653;DHT22;39553;52.954;5.932;2023-04-24T09:05:16;10.20;99.90
53653;DHT22;39553;52.954;5.932;2023-04-24T09:07:45;9.90;99.90
53653;DHT22;39553;52.954;5.932;2023-04-24T09:10:12;10.00;99.90
53653;DHT22;39553;52.954;5.932;2023-04-24T09:12:38;10.00;99.90
53653;DHT22;39553;52.954;5.932;2023-04-24T09:15:04;10.10;99.90
53653;DHT22;39553;52.954;5.932;2023-04-24T09:17:32;10.10;99.90
53653;DHT22;39553;52.954;5.932;2023-04-24T09:19:58;10.10;99.90
53653;DHT22;39553;52.954;5.932;2023-04-24T09:22:24;10.10;99.90
53653;DHT22;39553;52.954;5.932;2023-04-24T09:25:08;10.00;99.90
53653;DHT22;39553;52.954;5.932;2023-04-24T09:27:41;9.90;99.90
53653;DHT22;39553;52.954;5.932;2023-04-24T09:30:08;9.60;99.90
53653;DHT22;39553;52.954;5.932;2023-04-24T09:32:34;9.60;99.90
53653;DHT22;39553;52.954;5.932;2023-04-24T09:35:14;9.30;99.90
53653;DHT22;39553;52.954;5.932;2023-04-24T09:37:43;9.10;99.90
53653;DHT22;39553;52.954;5.932;2023-04-24T09:40:20;9.10;99.90
53653;DHT22;39553;52.954;5.932;2023-04-24T09:42:56;9.10;99.90
53653;DHT22;39553;52.954;5.932;2023-04-24T09:45:36;9.10;99.90
53653;DHT22;39553;52.954;5.932;2023-04-24T09:48:02;9.20;99.90
53653;DHT22;39553;52.954;5.932;2023-04-24T09:50:30;9.20;99.90
53653;DHT22;39553;52.954;5.932;2023-04-24T09:53:06;9.20;99.90
53653;DHT22;39553;52.954;5.932;2023-04-24T09:55:42;9.20;99.90
53653;DHT22;39553;52.954;5.932;2023-04-24T09:58:10;9.20;99.90
53653;DHT22;39553;52.954;5.932;2023-04-24T10:00:36;9.30;99.90
53653;DHT22;39553;52.954;5.932;2023-04-24T10:03:04;9.30;99.90
53653;DHT22;39553;52.954;5.932;2023-04-24T10:05:34;9.30;99.90
53653;DHT22;39553;52.954;5.932;2023-04-24T10:08:03;9.30;99.90
53653;DHT22;39553;52.954;5.932;2023-04-24T10:10:30;9.40;99.90
53653;DHT22;39553;52.954;5.932;2023-04-24T10:12:56;9.40;99.90
53653;DHT22;39553;52.954;5.932;2023-04-24T10:15:22;9.50;99.90
53653;DHT22;39553;52.954;5.932;2023-04-24T10:17:50;9.30;99.90
53653;DHT22;39553;52.954;5.932;2023-04-24T10:20:27;9.20;99.90
53653;DHT22;39553;52.954;5.932;2023-04-24T10:22:57;9.00;99.90
53653;DHT22;39553;52.954;5.932;2023-04-24T10:25:31;8.80;99.90
53653;DHT22;39553;52.954;5.932;2023-04-24T10:27:58;8.80;99.90
53653;DHT22;39553;52.954;5.932;2023-04-24T10:30:29;8.80;99.90
53653;DHT22;39553;52.954;5.932;2023-04-24T10:32:55;8.90;99.90
53653;DHT22;39553;52.954;5.932;2023-04-24T10:35:22;8.90;99.90
53653;DHT22;39553;52.954;5.932;2023-04-24T10:37:56;9.00;99.90
53653;DHT22;39553;52.954;5.932;2023-04-24T10:40:35;9.10;99.90
53653;DHT22;39553;52.954;5.932;2023-04-24T10:43:06;9.20;99.90
53653;DHT22;39553;52.954;5.932;2023-04-24T10:45:40;9.30;99.90
53653;DHT22;39553;52.954;5.932;2023-04-24T10:48:09;9.40;99.90
53653;DHT22;39553;52.954;5.932;2023-04-24T10:50:52;9.60;99.90
53653;DHT22;39553;52.954;5.932;2023-04-24T10:53:23;9.70;99.90
53653;DHT22;39553;52.954;5.932;2023-04-24T10:56:08;9.70;99.90
53653;DHT22;39553;52.954;5.932;2023-04-24T10:58:40;9.80;99.90
53653;DHT22;39553;52.954;5.932;2023-04-24T11:01:06;9.80;99.90
53653;DHT22;39553;52.954;5.932;2023-04-24T11:03:34;9.70;99.90
53653;DHT22;39553;52.954;5.932;2023-04-24T11:06:08;9.60;99.90
53653;DHT22;39553;52.954;5.932;2023-04-24T11:08:39;9.40;99.90
53653;DHT22;39553;52.954;5.932;2023-04-24T11:11:18;9.30;99.90
53653;DHT22;39553;52.954;5.932;2023-04-24T11:21:54;9.50;99.90
53653;DHT22;39553;52.954;5.932;2023-04-24T11:29:59;9.50;99.90
53653;DHT22;39553;52.954;5.932;2023-04-24T11:32:30;9.60;99.90
53653;DHT22;39553;52.954;5.932;2023-04-24T11:37:41;9.70;99.90
53653;DHT22;39553;52.954;5.932;2023-04-24T11:40:12;9.70;99.90
53653;DHT22;39553;52.954;5.932;2023-04-24T11:42:40;9.80;99.90
53653;DHT22;39553;52.954;5.932;2023-04-24T11:45:15;9.90;99.90
53653;DHT22;39553;52.954;5.932;2023-04-24T11:47:42;10.00;99.90
53653;DHT22;39553;52.954;5.932;2023-04-24T11:50:10;10.00;99.90
53653;DHT22;39553;52.954;5.932;2023-04-24T11:52:38;10.00;99.90
53653;DHT22;39553;52.954;5.932;2023-04-24T11:55:06;9.90;99.90
53653;DHT22;39553;52.954;5.932;2023-04-24T11:57:32;9.90;99.40
53653;DHT22;39553;52.954;5.932;2023-04-24T12:00:03;9.90;99.40
53653;DHT22;39553;52.954;5.932;2023-04-24T12:02:31;9.90;99.90
53653;DHT22;39553;52.954;5.932;2023-04-24T12:04:56;9.90;99.90
53653;DHT22;39553;52.954;5.932;2023-04-24T12:07:23;9.80;99.80
53653;DHT22;39553;52.954;5.932;2023-04-24T12:09:58;9.80;99.90
53653;DHT22;39553;52.954;5.932;2023-04-24T12:12:26;9.80;99.60
53653;DHT22;39553;52.954;5.932;2023-04-24T12:14:57;9.60;99.90
53653;DHT22;39553;52.954;5.932;2023-04-24T12:17:31;9.50;99.90
53653;DHT22;39553;52.954;5.932;2023-04-24T12:20:05;9.40;99.90
53653;DHT22;39553;52.954;5.932;2023-04-24T12:22:57;9.40;99.90
53653;DHT22;39553;52.954;5.932;2023-04-24T12:25:28;9.50;99.90
53653;DHT22;39553;52.954;5.932;2023-04-24T12:27:55;9.70;99.90
53653;DHT22;39553;52.954;5.932;2023-04-24T12:30:47;9.70;99.90
53653;DHT22;39553;52.954;5.932;2023-04-24T12:33:21;9.80;99.90
53653;DHT22;39553;52.954;5.932;2023-04-24T12:35:50;9.80;99.90
53653;DHT22;39553;52.954;5.932;2023-04-24T12:38:22;9.90;99.90
53653;DHT22;39553;52.954;5.932;2023-04-24T12:40:48;10.10;99.90
53653;DHT22;39553;52.954;5.932;2023-04-24T12:43:18;10.00;99.90
53653;DHT22;39553;52.954;5.932;2023-04-24T12:45:49;10.00;99.90
53653;DHT22;39553;52.954;5.932;2023-04-24T12:48:15;9.90;99.90
53653;DHT22;39553;52.954;5.932;2023-04-24T12:50:41;9.80;99.90
53653;DHT22;39553;52.954;5.932;2023-04-24T12:53:07;9.70;99.90
53653;DHT22;39553;52.954;5.932;2023-04-24T12:55:34;9.60;99.90
53653;DHT22;39553;52.954;5.932;2023-04-24T12:58:00;9.30;99.90
53653;DHT22;39553;52.954;5.932;2023-04-24T13:00:27;9.10;99.90
53653;DHT22;39553;52.954;5.932;2023-04-24T13:02:53;9.00;99.90
53653;DHT22;39553;52.954;5.932;2023-04-24T13:05:19;9.00;99.90
53653;DHT22;39553;52.954;5.932;2023-04-24T13:07:44;9.00;99.90
53653;DHT22;39553;52.954;5.932;2023-04-24T13:10:12;9.00;99.90
53653;DHT22;39553;52.954;5.932;2023-04-24T13:12:39;9.10;99.90
53653;DHT22;39553;52.954;5.932;2023-04-24T13:15:06;9.30;99.90
53653;DHT22;39553;52.954;5.932;2023-04-24T13:17:32;9.30;99.90
53653;DHT22;39553;52.954;5.932;2023-04-24T13:19:58;9.50;99.90
53653;DHT22;39553;52.954;5.932;2023-04-24T13:22:26;9.50;99.90
53653;DHT22;39553;52.954;5.932;2023-04-24T13:24:52;9.50;99.90
53653;DHT22;39553;52.954;5.932;2023-04-24T13:27:18;9.70;99.90
53653;DHT22;39553;52.954;5.932;2023-04-24T13:29:44;9.70;99.90
53653;DHT22;39553;52.954;5.932;2023-04-24T13:32:10;9.70;99.90
53653;DHT22;39553;52.954;5.932;2023-04-24T13:34:36;9.70;99.90
53653;DHT22;39553;52.954;5.932;2023-04-24T13:37:03;9.70;99.90
53653;DHT22;39553;52.954;5.932;2023-04-24T13:39:32;9.70;99.90
53653;DHT22;39553;52.954;5.932;2023-04-24T13:42:01;9.70;99.90
53653;DHT22;39553;52.954;5.932;2023-04-24T13:44:26;9.60;99.90
53653;DHT22;39553;52.954;5.932;2023-04-24T13:46:54;9.50;99.90
53653;DHT22;39553;52.954;5.932;2023-04-24T13:49:24;9.40;99.90
53653;DHT22;39553;52.954;5.932;2023-04-24T13:51:51;9.40;99.90
53653;DHT22;39553;52.954;5.932;2023-04-24T13:54:17;9.30;99.90
53653;DHT22;39553;52.954;5.932;2023-04-24T13:56:49;9.30;99.90
53653;DHT22;39553;52.954;5.932;2023-04-24T13:59:15;9.40;99.90
53653;DHT22;39553;52.954;5.932;2023-04-24T14:01:41;9.40;99.90
53653;DHT22;39553;52.954;5.932;2023-04-24T14:04:07;9.50;99.90
53653;DHT22;39553;52.954;5.932;2023-04-24T14:06:36;9.50;99.90
53653;DHT22;39553;52.954;5.932;2023-04-24T14:09:01;9.50;99.90
53653;DHT22;39553;52.954;5.932;2023-04-24T14:11:27;9.50;99.90
53653;DHT22;39553;52.954;5.932;2023-04-24T14:13:54;9.50;99.90
53653;DHT22;39553;52.954;5.932;2023-04-24T14:16:22;9.50;99.90
53653;DHT22;39553;52.954;5.932;2023-04-24T14:18:47;9.50;99.90
53653;DHT22;39553;52.954;5.932;2023-04-24T14:21:14;9.40;99.90
53653;DHT22;39553;52.954;5.932;2023-04-24T14:23:41;9.30;99.90
53653;DHT22;39553;52.954;5.932;2023-04-24T14:26:07;9.50;99.90
53653;DHT22;39553;52.954;5.932;2023-04-24T14:28:33;9.10;99.90
53653;DHT22;39553;52.954;5.932;2023-04-24T14:30:59;9.10;99.90
53653;DHT22;39553;52.954;5.932;2023-04-24T14:33:25;9.10;99.90
53653;DHT22;39553;52.954;5.932;2023-04-24T14:35:51;9.30;99.90
53653;DHT22;39553;52.954;5.932;2023-04-24T14:38:17;9.30;99.90
53653;DHT22;39553;52.954;5.932;2023-04-24T14:40:42;9.40;99.90
53653;DHT22;39553;52.954;5.932;2023-04-24T14:43:08;9.30;99.90
53653;DHT22;39553;52.954;5.932;2023-04-24T14:45:34;9.20;99.90
53653;DHT22;39553;52.954;5.932;2023-04-24T14:48:00;9.00;99.90
53653;DHT22;39553;52.954;5.932;2023-04-24T14:50:26;9.00;99.90
53653;DHT22;39553;52.954;5.932;2023-04-24T14:52:57;8.80;99.90
53653;DHT22;39553;52.954;5.932;2023-04-24T14:55:24;8.70;99.90
53653;DHT22;39553;52.954;5.932;2023-04-24T14:57:50;8.70;99.90
53653;DHT22;39553;52.954;5.932;2023-04-24T15:00:16;8.90;99.90
53653;DHT22;39553;52.954;5.932;2023-04-24T15:02:42;9.00;99.90
53653;DHT22;39553;52.954;5.932;2023-04-24T15:05:10;9.10;99.90
53653;DHT22;39553;52.954;5.932;2023-04-24T15:07:37;9.10;99.90
53653;DHT22;39553;52.954;5.932;2023-04-24T15:10:03;9.00;99.90
53653;DHT22;39553;52.954;5.932;2023-04-24T15:12:29;9.00;99.90
53653;DHT22;39553;52.954;5.932;2023-04-24T15:14:55;9.00;99.90
53653;DHT22;39553;52.954;5.932;2023-04-24T15:17:21;9.10;99.90
53653;DHT22;39553;52.954;5.932;2023-04-24T15:19:46;9.10;99.90
53653;DHT22;39553;52.954;5.932;2023-04-24T15:22:13;9.10;99.90
53653;DHT22;39553;52.954;5.932;2023-04-24T15:24:38;9.00;99.90
53653;DHT22;39553;52.954;5.932;2023-04-24T15:27:05;9.00;99.90
53653;DHT22;39553;52.954;5.932;2023-04-24T15:29:30;9.10;99.90
53653;DHT22;39553;52.954;5.932;2023-04-24T15:31:56;9.10;99.90
53653;DHT22;39553;52.954;5.932;2023-04-24T15:34:22;8.90;99.90
53653;DHT22;39553;52.954;5.932;2023-04-24T15:36:48;8.80;99.90
53653;DHT22;39553;52.954;5.932;2023-04-24T15:39:13;8.80;99.90
53653;DHT22;39553;52.954;5.932;2023-04-24T15:41:39;8.70;99.90
53653;DHT22;39553;52.954;5.932;2023-04-24T15:44:10;8.90;99.90
53653;DHT22;39553;52.954;5.932;2023-04-24T15:46:37;8.90;99.90
53653;DHT22;39553;52.954;5.932;2023-04-24T15:49:03;8.90;99.90
53653;DHT22;39553;52.954;5.932;2023-04-24T15:51:29;8.90;99.90
53653;DHT22;39553;52.954;5.932;2023-04-24T15:53:56;8.80;99.90
53653;DHT22;39553;52.954;5.932;2023-04-24T15:56:22;9.00;99.90
53653;DHT22;39553;52.954;5.932;2023-04-24T15:58:48;9.10;99.90